createdAt,value
2019-04-07T00:01:20.662Z,11.32
2019-04-07T00:03:48.339Z,11.31
2019-04-07T00:06:15.670Z,11.31
2019-04-07T00:08:43.268Z,11.31
2019-04-07T00:11:10.584Z,11.31
2019-04-07T00:13:37.469Z,11.33
2019-04-07T00:16:04.656Z,11.33
2019-04-07T00:18:32.051Z,11.37
2019-04-07T00:21:00.278Z,11.31
2019-04-07T00:23:27.020Z,11.24
2019-04-07T00:25:53.862Z,11.22
2019-04-07T00:28:21.155Z,11.13
2019-04-07T00:30:47.991Z,11.08
2019-04-07T00:33:16.419Z,11.15
2019-04-07T00:35:43.609Z,11.18
2019-04-07T00:38:10.655Z,11.19
2019-04-07T00:40:37.379Z,11.20
2019-04-07T00:43:04.533Z,11.19
2019-04-07T00:45:36.057Z,11.22
2019-04-07T00:48:02.809Z,11.25
2019-04-07T00:50:31.672Z,11.22
2019-04-07T00:52:59.040Z,11.19
2019-04-07T00:55:26.282Z,11.16
2019-04-07T00:57:53.607Z,11.17
2019-04-07T01:00:22.032Z,11.14
2019-04-07T01:02:49.215Z,11.17
2019-04-07T01:05:17.176Z,11.19
2019-04-07T01:07:43.940Z,11.17
2019-04-07T01:10:10.999Z,11.14
2019-04-07T01:12:38.394Z,11.09
2019-04-07T01:15:05.483Z,11.04
2019-04-07T01:17:32.223Z,11.05
2019-04-07T01:19:58.957Z,11.13
2019-04-07T01:22:25.780Z,11.07
2019-04-07T01:24:52.664Z,11.09
2019-04-07T01:27:20.409Z,11.08
2019-04-07T01:29:47.564Z,11.19
2019-04-07T01:32:14.794Z,11.25
2019-04-07T01:34:41.744Z,11.20
2019-04-07T01:37:08.769Z,11.14
2019-04-07T01:39:35.808Z,11.11
2019-04-07T01:42:21.380Z,11.04
2019-04-07T01:45:13.996Z,11.03
2019-04-07T01:47:52.318Z,11.03
2019-04-07T01:50:51.794Z,10.99
2019-04-07T01:53:25.661Z,11.01
2019-04-07T01:56:21.774Z,10.97
2019-04-07T01:58:58.310Z,10.93
2019-04-07T02:01:40.468Z,10.97
2019-04-07T02:04:42.471Z,10.93
2019-04-07T02:07:32.575Z,10.76
2019-04-07T02:10:17.654Z,10.79
2019-04-07T02:13:03.175Z,10.83
2019-04-07T02:16:05.020Z,10.77
2019-04-07T02:18:51.390Z,10.78
2019-04-07T02:21:26.163Z,10.85
2019-04-07T02:24:14.663Z,10.89
2019-04-07T02:26:47.195Z,10.91
2019-04-07T02:29:45.885Z,10.81
2019-04-07T02:32:31.317Z,10.90
2019-04-07T02:35:07.570Z,10.92
2019-04-07T02:37:55.354Z,10.90
2019-04-07T02:40:31.361Z,10.91
2019-04-07T02:43:16.275Z,11.03
2019-04-07T02:46:06.474Z,11.00
2019-04-07T02:48:56.338Z,11.18
2019-04-07T02:51:42.067Z,11.18
2019-04-07T02:54:20.666Z,11.14
2019-04-07T02:57:13.263Z,11.16
2019-04-07T02:59:51.383Z,11.13
2019-04-07T03:02:29.136Z,11.22
2019-04-07T03:05:08.976Z,11.20
2019-04-07T03:07:44.551Z,11.15
2019-04-07T03:10:26.322Z,11.12
2019-04-07T03:13:10.993Z,11.11
2019-04-07T03:15:42.885Z,11.18
2019-04-07T03:18:47.112Z,11.28
2019-04-07T03:21:31.078Z,11.20
2019-04-07T03:24:24.459Z,11.13
2019-04-07T03:27:17.873Z,11.09
2019-04-07T03:29:59.582Z,11.13
2019-04-07T03:32:50.654Z,11.00
2019-04-07T03:35:26.593Z,10.82
2019-04-07T03:38:12.146Z,10.71
2019-04-07T03:40:44.313Z,10.71
2019-04-07T03:43:21.544Z,10.86
2019-04-07T03:46:12.765Z,11.00
2019-04-07T03:48:47.985Z,10.98
2019-04-07T03:51:24.354Z,10.90
2019-04-07T03:54:00.667Z,10.78
2019-04-07T03:57:05.285Z,10.59
2019-04-07T03:59:57.893Z,10.57
2019-04-07T04:02:46.861Z,10.59
2019-04-07T04:05:22.164Z,10.62
2019-04-07T04:07:57.986Z,10.64
2019-04-07T04:10:36.948Z,10.53
2019-04-07T04:13:32.722Z,10.52
2019-04-07T04:16:08.662Z,10.55
2019-04-07T04:18:35.753Z,10.56
2019-04-07T04:21:03.533Z,10.56
2019-04-07T04:23:31.710Z,10.48
2019-04-07T04:25:59.067Z,10.44
2019-04-07T04:28:25.964Z,10.26
2019-04-07T04:30:56.565Z,10.21
2019-04-07T04:33:23.648Z,10.30
2019-04-07T04:35:51.941Z,10.26
2019-04-07T04:38:20.631Z,10.33
2019-04-07T04:40:49.368Z,10.28
2019-04-07T04:43:16.363Z,10.23
2019-04-07T04:45:43.079Z,10.13
2019-04-07T04:48:10.285Z,10.17
2019-04-07T04:50:37.382Z,10.17
2019-04-07T04:53:04.835Z,10.17
2019-04-07T04:55:31.971Z,10.16
2019-04-07T04:57:58.977Z,10.11
2019-04-07T05:00:26.661Z,10.09
2019-04-07T05:02:53.723Z,10.03
2019-04-07T05:05:21.205Z,9.81
2019-04-07T05:07:57.786Z,9.78
2019-04-07T05:10:17.139Z,9.78
2019-04-07T05:12:44.595Z,9.82
2019-04-07T05:15:11.994Z,9.95
2019-04-07T05:17:39.041Z,10.10
2019-04-07T05:20:05.914Z,10.19
2019-04-07T05:22:33.288Z,10.23
2019-04-07T05:25:00.136Z,10.30
2019-04-07T05:27:27.585Z,10.35
2019-04-07T05:29:54.595Z,10.39
2019-04-07T05:32:21.359Z,10.42
2019-04-07T05:34:48.853Z,10.45
2019-04-07T05:37:15.596Z,10.53
2019-04-07T05:39:42.581Z,10.51
2019-04-07T05:42:09.279Z,10.42
2019-04-07T05:44:36.413Z,10.39
2019-04-07T05:47:04.032Z,10.34
2019-04-07T05:49:31.396Z,10.26
2019-04-07T05:51:59.552Z,10.25
2019-04-07T05:54:27.492Z,10.26
2019-04-07T05:56:58.699Z,10.30
2019-04-07T05:59:26.383Z,10.14
2019-04-07T06:01:59.280Z,10.14
2019-04-07T06:04:21.822Z,10.26
2019-04-07T06:06:52.535Z,10.31
2019-04-07T06:09:19.028Z,10.33
2019-04-07T06:11:46.436Z,10.39
2019-04-07T06:14:16.694Z,10.48
2019-04-07T06:16:46.919Z,10.49
2019-04-07T06:19:13.912Z,10.52
2019-04-07T06:21:41.549Z,10.47
2019-04-07T06:24:08.981Z,10.45
2019-04-07T06:26:37.120Z,10.52
2019-04-07T06:29:03.994Z,10.55
2019-04-07T06:31:33.276Z,10.56
2019-04-07T06:34:00.705Z,10.63
2019-04-07T06:36:27.565Z,10.68
2019-04-07T06:38:54.765Z,10.74
2019-04-07T06:41:21.819Z,10.77
2019-04-07T06:43:48.619Z,10.87
2019-04-07T06:46:43.968Z,10.97
2019-04-07T06:49:20.701Z,10.80
2019-04-07T06:51:55.976Z,10.56
2019-04-07T06:54:55.995Z,10.39
2019-04-07T06:57:49.730Z,10.46
2019-04-07T07:00:30.114Z,10.68
2019-04-07T07:03:25.664Z,10.85
2019-04-07T07:06:11.217Z,10.96
2019-04-07T07:08:48.511Z,11.02
2019-04-07T07:11:34.770Z,11.07
2019-04-07T07:14:43.296Z,11.17
2019-04-07T07:17:17.476Z,11.35
2019-04-07T07:20:01.718Z,11.55
2019-04-07T07:22:35.700Z,11.42
2019-04-07T07:25:05.208Z,11.44
2019-04-07T07:27:33.770Z,11.59
2019-04-07T07:30:01.246Z,11.62
2019-04-07T07:32:28.197Z,11.66
2019-04-07T07:34:55.275Z,11.74
2019-04-07T07:37:25.273Z,11.85
2019-04-07T07:39:51.952Z,11.86
2019-04-07T07:42:21.502Z,11.93
2019-04-07T07:44:48.266Z,12.00
2019-04-07T07:47:15.383Z,12.09
2019-04-07T07:49:42.427Z,12.18
2019-04-07T07:52:09.404Z,12.06
2019-04-07T07:54:36.754Z,12.09
2019-04-07T07:57:08.867Z,12.10
2019-04-07T07:59:38.975Z,12.16
2019-04-07T08:02:04.839Z,12.11
2019-04-07T08:04:31.618Z,12.17
2019-04-07T08:06:58.989Z,12.22
2019-04-07T08:09:27.085Z,12.33
2019-04-07T08:11:56.700Z,12.41
2019-04-07T08:14:23.516Z,12.46
2019-04-07T08:16:51.078Z,12.54
2019-04-07T08:19:18.995Z,12.53
2019-04-07T08:21:50.461Z,12.69
2019-04-07T08:24:19.168Z,12.70
2019-04-07T08:26:48.720Z,12.73
2019-04-07T08:29:16.909Z,12.81
2019-04-07T08:31:44.833Z,12.80
2019-04-07T08:34:12.090Z,12.71
2019-04-07T08:36:41.949Z,12.70
2019-04-07T08:39:19.420Z,12.71
2019-04-07T08:41:39.706Z,12.72
2019-04-07T08:44:05.100Z,12.97
2019-04-07T08:46:35.598Z,13.06
2019-04-07T08:49:01.785Z,13.15
2019-04-07T08:51:30.787Z,13.22
2019-04-07T08:53:58.551Z,13.29
2019-04-07T08:56:26.601Z,13.46
2019-04-07T08:58:54.397Z,13.48
2019-04-07T09:01:22.034Z,13.43
2019-04-07T09:03:49.638Z,13.59
2019-04-07T09:06:18.510Z,13.86
2019-04-07T09:08:46.163Z,14.12
2019-04-07T09:11:14.746Z,14.31
2019-04-07T09:13:45.216Z,14.34
2019-04-07T09:16:31.211Z,14.35
2019-04-07T09:19:18.186Z,14.41
2019-04-07T09:22:23.315Z,14.50
2019-04-07T09:25:21.536Z,14.72
2019-04-07T09:28:07.620Z,14.83
2019-04-07T09:30:53.628Z,14.71
2019-04-07T09:33:52.834Z,14.80
2019-04-07T09:36:54.548Z,14.66
2019-04-07T09:39:55.411Z,14.69
2019-04-07T09:42:24.378Z,14.65
2019-04-07T09:45:12.811Z,14.68
2019-04-07T09:48:02.861Z,14.75
2019-04-07T09:50:49.577Z,14.90
2019-04-07T09:53:22.981Z,14.93
2019-04-07T09:56:16.231Z,14.95
2019-04-07T09:58:50.331Z,14.87
2019-04-07T10:01:51.818Z,14.97
2019-04-07T10:04:42.287Z,14.98
2019-04-07T10:07:33.408Z,14.95
2019-04-07T10:10:20.125Z,14.96
2019-04-07T10:13:05.511Z,15.11
2019-04-07T10:16:01.022Z,15.41
2019-04-07T10:18:52.230Z,15.46
2019-04-07T10:21:50.892Z,15.58
2019-04-07T10:24:40.439Z,15.51
2019-04-07T10:27:17.616Z,15.72
2019-04-07T10:29:54.543Z,15.74
2019-04-07T10:32:29.419Z,15.83
2019-04-07T10:35:04.673Z,15.74
2019-04-07T10:37:53.031Z,15.80
2019-04-07T10:40:57.770Z,15.80
2019-04-07T10:43:36.973Z,15.97
2019-04-07T10:46:29.395Z,15.04
2019-04-07T10:49:10.357Z,15.98
2019-04-07T10:52:02.805Z,16.25
2019-04-07T10:54:41.511Z,16.54
2019-04-07T10:57:35.423Z,16.67
2019-04-07T11:00:22.645Z,16.95
2019-04-07T11:03:09.647Z,16.99
2019-04-07T11:05:50.391Z,17.22
2019-04-07T11:08:30.881Z,17.22
2019-04-07T11:11:23.248Z,17.24
2019-04-07T11:14:09.613Z,17.17
2019-04-07T11:16:54.853Z,17.17
2019-04-07T11:19:53.360Z,17.56
2019-04-07T11:22:38.467Z,17.68
2019-04-07T11:25:18.365Z,17.48
2019-04-07T11:28:05.333Z,17.24
2019-04-07T11:30:54.556Z,17.17
2019-04-07T11:33:43.884Z,17.19
2019-04-07T11:36:20.103Z,17.04
2019-04-07T11:38:53.453Z,17.10
2019-04-07T11:41:42.373Z,17.34
2019-04-07T11:44:29.270Z,17.64
2019-04-07T11:47:05.206Z,17.76
2019-04-07T11:49:44.714Z,17.90
2019-04-07T11:53:10.947Z,18.00
2019-04-07T11:55:57.663Z,17.84
2019-04-07T11:58:40.849Z,17.66
2019-04-07T12:01:28.167Z,17.95
2019-04-07T12:04:26.286Z,17.99
2019-04-07T12:07:11.169Z,18.16
2019-04-07T12:10:01.129Z,18.42
2019-04-07T12:12:51.598Z,18.65
2019-04-07T12:15:32.308Z,18.66
2019-04-07T12:18:18.611Z,18.51
2019-04-07T12:20:50.752Z,18.28
2019-04-07T12:23:43.309Z,18.26
2019-04-07T12:26:20.561Z,18.28
2019-04-07T12:29:10.790Z,17.97
2019-04-07T12:31:56.502Z,18.03
2019-04-07T12:34:51.947Z,18.17
2019-04-07T12:37:43.747Z,18.40
2019-04-07T12:40:48.625Z,18.36
2019-04-07T12:43:42.818Z,18.28
2019-04-07T12:46:32.165Z,18.28
2019-04-07T12:49:28.554Z,18.33
2019-04-07T12:52:15.147Z,18.12
2019-04-07T12:55:11.970Z,17.98
2019-04-07T12:58:11.727Z,17.96
2019-04-07T13:00:57.771Z,18.12
2019-04-07T13:03:42.681Z,18.28
2019-04-07T13:06:33.270Z,18.34
2019-04-07T13:09:27.832Z,18.66
2019-04-07T13:12:22.349Z,19.05
2019-04-07T13:15:21.653Z,19.46
2019-04-07T13:18:07.024Z,19.48
2019-04-07T13:20:50.271Z,19.28
2019-04-07T13:23:37.086Z,19.11
2019-04-07T13:26:35.711Z,19.10
2019-04-07T13:29:11.810Z,19.24
2019-04-07T13:32:07.642Z,18.94
2019-04-07T13:34:51.035Z,18.81
2019-04-07T13:37:26.513Z,18.90
2019-04-07T13:40:25.259Z,19.10
2019-04-07T13:43:08.769Z,19.30
2019-04-07T13:45:59.798Z,19.27
2019-04-07T13:48:49.865Z,19.29
2019-04-07T13:51:37.766Z,19.22
2019-04-07T13:54:24.293Z,19.14
2019-04-07T13:57:25.900Z,19.22
2019-04-07T14:00:16.991Z,19.55
2019-04-07T14:02:53.332Z,19.64
2019-04-07T14:05:38.949Z,19.49
2019-04-07T14:08:32.371Z,19.45
2019-04-07T14:11:17.664Z,19.14
2019-04-07T14:14:12.821Z,19.05
2019-04-07T14:16:59.572Z,19.10
2019-04-07T14:19:33.275Z,18.74
2019-04-07T14:22:11.189Z,18.57
2019-04-07T14:24:56.722Z,18.43
2019-04-07T14:27:30.910Z,18.39
2019-04-07T14:30:08.872Z,18.25
2019-04-07T14:33:00.138Z,18.19
2019-04-07T14:35:56.425Z,18.22
2019-04-07T14:38:40.205Z,18.15
2019-04-07T14:41:30.243Z,18.18
2019-04-07T14:44:17.119Z,18.30
2019-04-07T14:47:16.149Z,18.29
2019-04-07T14:50:04.881Z,18.24
2019-04-07T14:52:56.678Z,18.25
2019-04-07T14:55:49.568Z,18.27
2019-04-07T14:58:30.306Z,18.28
2019-04-07T15:01:15.826Z,18.24
2019-04-07T15:03:42.868Z,18.23
2019-04-07T15:06:10.899Z,18.25
2019-04-07T15:09:16.567Z,18.14
2019-04-07T15:12:14.725Z,18.04
2019-04-07T15:14:34.352Z,18.12
2019-04-07T15:17:01.314Z,18.11
2019-04-07T15:19:28.848Z,13.49
2019-04-07T15:21:55.752Z,17.99
2019-04-07T15:24:22.818Z,18.00
2019-04-07T15:26:50.241Z,18.00
2019-04-07T15:29:17.142Z,17.98
2019-04-07T15:31:49.046Z,18.04
2019-04-07T15:34:14.386Z,18.11
2019-04-07T15:36:42.817Z,18.05
2019-04-07T15:39:10.963Z,17.98
2019-04-07T15:41:38.282Z,18.00
2019-04-07T15:44:07.007Z,17.99
2019-04-07T15:46:34.431Z,17.90
2019-04-07T15:49:02.695Z,17.84
2019-04-07T15:51:34.108Z,17.87
2019-04-07T15:53:59.361Z,17.91
2019-04-07T15:56:27.157Z,17.93
2019-04-07T15:58:58.206Z,17.96
2019-04-07T16:01:25.727Z,18.00
2019-04-07T16:03:54.723Z,18.04
2019-04-07T16:06:21.543Z,18.07
2019-04-07T16:08:49.877Z,18.11
2019-04-07T16:11:17.746Z,18.23
2019-04-07T16:13:45.520Z,18.41
2019-04-07T16:16:13.525Z,18.54
2019-04-07T16:18:43.085Z,18.68
2019-04-07T16:21:11.150Z,18.93
2019-04-07T16:23:38.124Z,19.24
2019-04-07T16:26:05.244Z,19.46
2019-04-07T16:28:33.056Z,19.59
2019-04-07T16:30:59.854Z,19.65
2019-04-07T16:33:27.226Z,19.74
2019-04-07T16:35:56.331Z,19.54
2019-04-07T16:38:23.149Z,19.18
2019-04-07T16:40:50.214Z,19.06
2019-04-07T16:43:18.884Z,18.86
2019-04-07T16:45:50.644Z,18.64
2019-04-07T16:48:17.600Z,18.52
2019-04-07T16:50:45.145Z,18.35
2019-04-07T16:53:12.281Z,18.19
2019-04-07T16:55:41.636Z,18.07
2019-04-07T16:58:14.303Z,17.94
2019-04-07T17:00:41.881Z,17.84
2019-04-07T17:03:09.892Z,17.78
2019-04-07T17:05:37.574Z,17.78
2019-04-07T17:08:05.389Z,17.78
2019-04-07T17:10:35.078Z,17.71
2019-04-07T17:13:09.237Z,17.58
2019-04-07T17:15:30.667Z,17.63
2019-04-07T17:17:58.812Z,17.55
2019-04-07T17:20:28.121Z,17.48
2019-04-07T17:22:58.274Z,17.40
2019-04-07T17:25:25.624Z,17.38
2019-04-07T17:27:53.055Z,17.32
2019-04-07T17:30:24.377Z,17.31
2019-04-07T17:32:53.278Z,17.21
2019-04-07T17:35:21.430Z,17.13
2019-04-07T17:37:50.633Z,17.09
2019-04-07T17:40:19.178Z,16.94
2019-04-07T17:42:48.353Z,16.95
2019-04-07T17:45:46.251Z,16.89
2019-04-07T17:48:25.559Z,16.83
2019-04-07T17:51:08.727Z,16.75
2019-04-07T17:53:57.216Z,16.65
2019-04-07T17:56:40.658Z,16.60
2019-04-07T17:59:37.780Z,16.52
2019-04-07T18:02:30.394Z,16.49
2019-04-07T18:05:27.773Z,16.55
2019-04-07T18:08:17.867Z,16.59
2019-04-07T18:10:57.848Z,16.43
2019-04-07T18:13:49.959Z,16.40
2019-04-07T18:16:46.168Z,16.41
2019-04-07T18:19:42.033Z,16.34
2019-04-07T18:22:22.117Z,16.28
2019-04-07T18:24:54.551Z,16.39
2019-04-07T18:27:41.818Z,16.43
2019-04-07T18:30:33.401Z,16.42
2019-04-07T18:33:09.656Z,16.46
2019-04-07T18:35:53.975Z,16.49
2019-04-07T18:38:45.037Z,16.45
2019-04-07T18:41:25.172Z,16.33
2019-04-07T18:44:21.007Z,16.24
2019-04-07T18:47:15.515Z,16.22
2019-04-07T18:50:20.422Z,16.21
2019-04-07T18:53:07.258Z,16.15
2019-04-07T18:55:52.604Z,16.19
2019-04-07T18:58:31.170Z,16.19
2019-04-07T19:01:12.452Z,16.19
2019-04-07T19:04:06.715Z,16.09
2019-04-07T19:07:02.620Z,16.03
2019-04-07T19:09:35.797Z,16.05
2019-04-07T19:12:23.135Z,15.96
2019-04-07T19:15:28.237Z,15.98
2019-04-07T19:18:27.184Z,16.04
2019-04-07T19:21:20.381Z,16.03
2019-04-07T19:23:53.890Z,16.02
2019-04-07T19:26:41.071Z,16.01
2019-04-07T19:29:28.348Z,16.02
2019-04-07T19:32:15.196Z,15.98
2019-04-07T19:35:03.270Z,15.90
2019-04-07T19:37:43.068Z,15.91
2019-04-07T19:40:29.934Z,15.84
2019-04-07T19:43:16.672Z,15.80
2019-04-07T19:46:00.613Z,15.65
2019-04-07T19:48:47.299Z,15.73
2019-04-07T19:51:38.251Z,15.79
2019-04-07T19:54:40.156Z,15.74
2019-04-07T19:57:44.895Z,15.67
2019-04-07T20:00:34.219Z,15.53
2019-04-07T20:03:28.853Z,15.47
2019-04-07T20:06:15.358Z,15.42
2019-04-07T20:08:53.480Z,15.46
2019-04-07T20:11:43.856Z,15.43
2019-04-07T20:14:28.428Z,15.24
2019-04-07T20:17:04.591Z,15.15
2019-04-07T20:19:55.659Z,15.15
2019-04-07T20:22:39.254Z,15.25
2019-04-07T20:25:26.760Z,15.16
2019-04-07T20:28:04.250Z,15.02
2019-04-07T20:31:02.659Z,14.99
2019-04-07T20:33:35.924Z,14.85
2019-04-07T20:36:24.214Z,14.81
2019-04-07T20:39:32.545Z,14.75
2019-04-07T20:42:05.254Z,14.72
2019-04-07T20:44:59.993Z,14.71
2019-04-07T20:47:49.179Z,14.58
2019-04-07T20:50:46.086Z,14.63
2019-04-07T20:53:40.852Z,14.58
2019-04-07T20:56:27.382Z,14.61
2019-04-07T20:59:12.603Z,14.65
2019-04-07T21:02:05.476Z,14.55
2019-04-07T21:04:50.918Z,14.46
2019-04-07T21:07:23.360Z,14.46
2019-04-07T21:10:14.731Z,14.39
2019-04-07T21:13:02.303Z,14.26
2019-04-07T21:16:03.644Z,14.29
2019-04-07T21:18:49.004Z,14.24
2019-04-07T21:21:29.167Z,14.21
2019-04-07T21:24:19.027Z,14.20
2019-04-07T21:27:10.287Z,14.21
2019-04-07T21:29:47.907Z,14.22
2019-04-07T21:32:33.315Z,13.97
2019-04-07T21:35:19.645Z,14.04
2019-04-07T21:38:06.257Z,14.13
2019-04-07T21:40:55.519Z,14.13
2019-04-07T21:43:38.960Z,14.00
2019-04-07T21:46:13.177Z,14.00
2019-04-07T21:48:49.245Z,13.94
2019-04-07T21:51:46.523Z,13.91
2019-04-07T21:54:24.812Z,13.84
2019-04-07T21:57:26.733Z,13.78
2019-04-07T22:00:12.655Z,13.77
2019-04-07T22:02:48.329Z,13.72
2019-04-07T22:05:26.879Z,13.61
2019-04-07T22:08:12.855Z,13.45
2019-04-07T22:10:36.293Z,13.41
2019-04-07T22:13:05.175Z,13.33
2019-04-07T22:15:43.089Z,13.39
2019-04-07T22:18:00.616Z,13.45
2019-04-07T22:20:27.873Z,13.58
2019-04-07T22:22:59.159Z,13.61
2019-04-07T22:25:30.555Z,13.59
2019-04-07T22:27:59.014Z,13.60
2019-04-07T22:30:26.243Z,13.49
2019-04-07T22:32:54.144Z,13.49
2019-04-07T22:35:21.289Z,13.56
2019-04-07T22:37:49.958Z,13.45
2019-04-07T22:40:17.464Z,13.40
2019-04-07T22:42:45.903Z,13.31
2019-04-07T22:45:13.631Z,13.24
2019-04-07T22:47:40.323Z,13.28
2019-04-07T22:50:07.994Z,13.32
2019-04-07T22:52:34.978Z,13.35
2019-04-07T22:55:05.406Z,13.34
2019-04-07T22:57:31.309Z,13.35
2019-04-07T22:59:58.732Z,13.26
2019-04-07T23:02:25.619Z,13.20
2019-04-07T23:04:52.704Z,13.20
2019-04-07T23:07:20.195Z,13.13
2019-04-07T23:09:47.499Z,13.17
2019-04-07T23:12:16.917Z,13.21
2019-04-07T23:14:44.255Z,13.17
2019-04-07T23:17:12.006Z,13.22
2019-04-07T23:19:38.811Z,13.21
2019-04-07T23:22:05.520Z,13.20
2019-04-07T23:24:32.247Z,13.19
2019-04-07T23:26:59.011Z,13.09
2019-04-07T23:29:26.207Z,13.07
2019-04-07T23:31:53.479Z,13.05
2019-04-07T23:34:21.121Z,12.94
2019-04-07T23:36:47.926Z,12.86
2019-04-07T23:39:15.257Z,12.87
2019-04-07T23:41:45.627Z,12.86
2019-04-07T23:44:12.961Z,12.88
2019-04-07T23:46:39.855Z,12.85
2019-04-07T23:49:06.581Z,12.83
2019-04-07T23:51:33.323Z,12.80
2019-04-07T23:54:07.506Z,12.78
2019-04-07T23:56:35.666Z,12.77
2019-04-07T23:59:02.654Z,12.68
